Time;durP1;ratioP1;P1;durP2;ratioP2;P2;SDS_P1;SDS_P2;PMS_P1;PMS_P2;Temp;Humidity;BMP_temperature;BMP_pressure;BME280_temperature;BME280_humidity;BME280_pressure;Samples;Min_cycle;Max_cycle;Signal;HPM_P1;HPM_P2
2024/02/26 00:02:20;;;;;;;10.90;7.50;;;;;;;3.84;100.00;101491.28;5033404;28;20147;-70
2024/02/26 00:04:46;;;;;;;13.57;7.77;;;;;;;3.83;100.00;101498.38;5033329;28;20804;-69
2024/02/26 00:07:12;;;;;;;10.23;7.67;;;;;;;3.85;100.00;101488.56;5033416;28;20144;-71
2024/02/26 00:09:37;;;;;;;9.50;7.00;;;;;;;3.85;100.00;101496.47;5033001;28;20038;-69
2024/02/26 00:12:04;;;;;;;11.07;7.33;;;;;;;3.26;100.00;101401.16;5033764;28;20509;-69
2024/02/26 00:14:30;;;;;;;12.40;6.80;;;;;;;3.79;100.00;101486.34;5032815;28;20037;-68
2024/02/26 00:16:56;;;;;;;11.23;7.13;;;;;;;3.82;100.00;101494.03;5032875;28;20953;-68
2024/02/26 00:19:22;;;;;;;12.13;6.97;;;;;;;3.67;100.00;101464.25;5032072;28;20272;-71
2024/02/26 00:21:47;;;;;;;13.77;8.20;;;;;;;3.84;100.00;101486.03;5033009;28;20041;-70
2024/02/26 00:24:13;;;;;;;10.37;7.07;;;;;;;3.89;100.00;101495.31;5032720;28;20286;-71
2024/02/26 00:26:39;;;;;;;8.93;6.80;;;;;;;3.84;100.00;101489.50;5014930;28;20538;-71
2024/02/26 00:29:05;;;;;;;13.83;7.57;;;;;;;3.73;100.00;101484.94;5037439;28;20679;-70
2024/02/26 00:31:30;;;;;;;10.10;7.03;;;;;;;3.62;100.00;101463.72;5037095;28;20354;-68
2024/02/26 00:33:56;;;;;;;10.40;7.37;;;;;;;3.78;100.00;101492.56;5035956;28;20072;-68
2024/02/26 00:36:22;;;;;;;11.07;7.60;;;;;;;3.73;100.00;101486.72;5036217;28;20037;-69
2024/02/26 00:38:50;;;;;;;9.57;6.50;;;;;;;3.71;100.00;101470.16;5034591;28;20507;-68
2024/02/26 00:41:19;;;;;;;10.50;6.63;;;;;;;3.90;100.00;101491.72;5034186;28;20123;-68
2024/02/26 00:43:44;;;;;;;9.35;6.40;;;;;;;3.82;100.00;101494.03;5035654;28;20047;-68
2024/02/26 00:46:10;;;;;;;9.20;6.17;;;;;;;3.84;100.00;101499.19;5035922;28;20412;-69
2024/02/26 00:48:36;;;;;;;7.73;5.70;;;;;;;3.83;100.00;101498.38;5035458;28;20041;-70
2024/02/26 00:51:05;;;;;;;8.23;6.20;;;;;;;3.88;100.00;101504.16;5035358;28;20041;-69
2024/02/26 00:53:30;;;;;;;8.48;6.65;;;;;;;3.88;100.00;101498.91;5040751;28;20294;-69
2024/02/26 00:55:56;;;;;;;8.93;5.80;;;;;;;3.43;100.00;101427.22;5041078;28;20108;-66
2024/02/26 00:58:22;;;;;;;10.90;6.47;;;;;;;3.86;100.00;101500.78;5035907;28;20065;-68
2024/02/26 01:00:47;;;;;;;8.70;5.63;;;;;;;3.47;100.00;101438.41;5034809;28;20435;-68
2024/02/26 01:03:13;;;;;;;8.30;6.00;;;;;;;3.59;100.00;101471.00;5034972;28;20038;-68
2024/02/26 01:05:39;;;;;;;7.43;5.33;;;;;;;3.51;100.00;101468.88;5034520;28;20091;-68
2024/02/26 01:08:04;;;;;;;9.27;6.53;;;;;;;3.51;100.00;101474.13;5034600;28;20075;-69
2024/02/26 01:10:30;;;;;;;6.77;5.13;;;;;;;3.58;100.00;101470.16;5034699;28;20033;-69
2024/02/26 01:12:56;;;;;;;8.60;6.10;;;;;;;3.73;100.00;101489.34;5035097;28;20053;-69
2024/02/26 01:15:23;;;;;;;6.97;5.17;;;;;;;3.71;100.00;101481.56;5035479;28;20397;-68
2024/02/26 01:17:50;;;;;;;9.67;6.23;;;;;;;3.74;100.00;101481.34;5037052;28;20045;-68
2024/02/26 01:20:16;;;;;;;7.90;5.73;;;;;;;3.42;100.00;101430.78;5037963;28;20275;-70
2024/02/26 01:22:42;;;;;;;7.87;5.33;;;;;;;3.75;100.00;101476.91;5033320;28;20280;-69
2024/02/26 01:25:09;;;;;;;8.13;6.60;;;;;;;3.81;100.00;101479.19;5035406;28;20044;-68
2024/02/26 01:27:37;;;;;;;8.30;5.90;;;;;;;3.82;100.00;101472.97;5039635;28;20276;-67
2024/02/26 01:30:06;;;;;;;9.23;5.80;;;;;;;3.83;100.00;101464.09;5048645;28;20299;-68
2024/02/26 01:32:32;;;;;;;8.33;6.27;;;;;;;3.71;100.00;101457.00;5043454;28;20276;-68
2024/02/26 01:34:58;;;;;;;9.43;6.27;;;;;;;3.73;100.00;101463.00;5034802;28;20281;-69
2024/02/26 01:37:23;;;;;;;6.23;5.37;;;;;;;3.69;100.00;101464.16;5033791;28;20087;-68
2024/02/26 01:39:49;;;;;;;7.87;5.67;;;;;;;3.61;100.00;101451.50;5033741;28;20041;-69
2024/02/26 01:42:15;;;;;;;6.30;4.83;;;;;;;3.53;100.00;101439.78;5034252;28;20128;-68
2024/02/26 01:44:40;;;;;;;6.70;4.87;;;;;;;3.61;100.00;101459.41;5033832;28;20466;-69
2024/02/26 01:47:10;;;;;;;7.53;5.20;;;;;;;3.55;100.00;101448.44;5033860;28;20037;-71
2024/02/26 01:49:36;;;;;;;8.30;4.83;;;;;;;3.43;100.00;101434.25;5032444;28;20057;-68
2024/02/26 01:52:03;;;;;;;5.57;5.03;;;;;;;3.68;100.00;101454.56;5032793;28;20284;-71
2024/02/26 01:54:29;;;;;;;6.97;6.07;;;;;;;3.69;100.00;101451.00;5034156;28;20378;-68
2024/02/26 01:56:56;;;;;;;8.77;5.43;;;;;;;3.63;100.00;101459.31;5032002;28;20303;-68
2024/02/26 01:59:22;;;;;;;10.03;5.87;;;;;;;3.64;100.00;101453.09;5033474;28;20343;-70
2024/02/26 02:01:54;;;;;;;9.07;4.93;;;;;;;3.50;100.00;101429.47;5033714;28;20760;-69
2024/02/26 02:04:21;;;;;;;7.10;6.00;;;;;;;3.65;100.00;101462.69;5034076;28;20807;-71
2024/02/26 02:06:47;;;;;;;7.50;4.70;;;;;;;3.59;100.00;101455.19;5033821;28;20310;-70
2024/02/26 02:09:13;;;;;;;9.23;5.63;;;;;;;3.60;100.00;101447.19;5033753;28;20264;-69
2024/02/26 02:11:38;;;;;;;8.67;5.87;;;;;;;3.54;100.00;101430.94;5034059;28;20816;-70
2024/02/26 02:14:04;;;;;;;10.90;7.17;;;;;;;3.47;100.00;101413.84;5033156;28;20036;-68
2024/02/26 02:16:30;;;;;;;13.50;7.43;;;;;;;3.57;100.00;101436.84;5033228;28;20299;-69
2024/02/26 02:18:56;;;;;;;10.40;7.07;;;;;;;3.56;100.00;101432.53;5033434;28;20398;-67
2024/02/26 02:21:22;;;;;;;13.10;8.13;;;;;;;3.65;100.00;101438.97;5033585;28;20041;-69
2024/02/26 02:23:48;;;;;;;13.30;8.30;;;;;;;3.56;100.00;101429.06;5033056;28;20045;-69
2024/02/26 02:26:16;;;;;;;14.57;9.60;;;;;;;3.56;100.00;101426.41;5032936;28;20148;-71
2024/02/26 02:28:44;;;;;;;12.93;9.23;;;;;;;3.55;100.00;101433.47;5032755;28;20280;-70
2024/02/26 02:31:10;;;;;;;15.32;9.82;;;;;;;3.50;100.00;101429.47;5032869;28;20345;-69
2024/02/26 02:33:36;;;;;;;20.83;12.20;;;;;;;3.60;100.00;101431.38;5033131;28;20049;-69
2024/02/26 02:36:01;;;;;;;20.80;12.87;;;;;;;3.53;100.00;101424.00;5032750;28;20568;-69
2024/02/26 02:38:29;;;;;;;18.93;12.53;;;;;;;3.67;100.00;101439.72;5031924;28;20144;-69
2024/02/26 02:40:55;;;;;;;23.60;14.13;;;;;;;3.57;100.00;101436.00;5032692;28;20500;-68
2024/02/26 02:43:21;;;;;;;29.07;15.27;;;;;;;3.34;100.00;101422.56;5032492;28;20037;-69
2024/02/26 02:45:47;;;;;;;24.30;14.30;;;;;;;3.33;100.00;101423.50;5014745;28;20046;-70
2024/02/26 02:48:12;;;;;;;23.77;14.07;;;;;;;3.29;100.00;101435.19;5032636;28;20038;-68
2024/02/26 02:50:39;;;;;;;22.03;14.07;;;;;;;3.33;100.00;101433.19;5031445;28;20037;-68
2024/02/26 02:53:05;;;;;;;26.93;15.10;;;;;;;3.24;100.00;101428.53;5032442;28;20025;-69
2024/02/26 02:55:30;;;;;;;23.57;14.73;;;;;;;3.33;100.00;101439.28;5032263;28;20759;-70
2024/02/26 02:57:56;;;;;;;19.23;12.97;;;;;;;3.42;100.00;101457.13;5032062;28;20883;-70
2024/02/26 03:00:22;;;;;;;24.10;13.77;;;;;;;3.06;100.00;101398.97;5032322;28;20029;-70
2024/02/26 03:02:49;;;;;;;24.07;13.97;;;;;;;3.35;100.00;101457.63;5032731;28;20043;-71
2024/02/26 03:05:15;;;;;;;19.67;12.50;;;;;;;3.23;100.00;101432.94;5033378;28;20271;-69
2024/02/26 03:07:40;;;;;;;24.57;14.00;;;;;;;3.25;100.00;101415.25;5032835;28;20268;-70
2024/02/26 03:10:06;;;;;;;22.10;12.67;;;;;;;3.34;100.00;101429.59;5032946;28;20034;-68
2024/02/26 03:12:33;;;;;;;22.93;14.40;;;;;;;3.45;100.00;101448.16;5031347;28;20033;-69
2024/02/26 03:15:02;;;;;;;20.77;13.03;;;;;;;3.30;100.00;101428.13;5032744;28;20045;-70
2024/02/26 03:17:30;;;;;;;23.20;13.50;;;;;;;3.24;100.00;101428.53;5032580;28;20300;-69
2024/02/26 03:19:56;;;;;;;20.93;12.57;;;;;;;3.14;100.00;101419.50;5031330;28;20272;-71
2024/02/26 03:22:22;;;;;;;19.73;12.90;;;;;;;3.13;100.00;101423.09;5032657;28;20076;-68
2024/02/26 03:24:48;;;;;;;20.53;12.47;;;;;;;3.01;100.00;101406.31;5032809;28;20041;-70
2024/02/26 03:27:14;;;;;;;22.03;12.83;;;;;;;3.19;100.00;101426.19;5032580;28;20054;-69
2024/02/26 03:29:40;;;;;;;22.30;12.80;;;;;;;3.13;100.00;101409.94;5014796;28;20315;-70
2024/02/26 03:32:06;;;;;;;24.97;13.90;;;;;;;3.03;100.00;101394.75;5032278;28;20296;-69
2024/02/26 03:34:34;;;;;;;24.13;13.13;;;;;;;2.86;100.00;101371.28;5032178;28;20045;-69
2024/02/26 03:37:00;;;;;;;22.63;13.90;;;;;;;3.19;100.00;101407.78;5032015;28;20390;-69
2024/02/26 03:39:26;;;;;;;26.13;12.53;;;;;;;2.92;100.00;101349.03;5031922;28;20274;-69
2024/02/26 03:41:52;;;;;;;25.80;13.93;;;;;;;3.29;100.00;101402.75;5030354;28;20268;-70
2024/02/26 03:44:17;;;;;;;22.17;13.37;;;;;;;3.22;100.00;101393.56;5031691;28;20041;-71
2024/02/26 03:46:43;;;;;;;21.57;13.73;;;;;;;3.00;100.00;101354.63;5031950;28;20489;-70
2024/02/26 03:49:09;;;;;;;22.03;14.87;;;;;;;3.20;100.00;101380.50;5030302;28;20033;-69
2024/02/26 03:51:34;;;;;;;21.20;13.43;;;;;;;3.38;100.00;101413.50;5031337;28;20037;-70
2024/02/26 03:54:00;;;;;;;22.27;13.60;;;;;;;3.34;100.00;101406.75;5031601;28;20061;-69
2024/02/26 03:56:27;;;;;;;20.83;12.37;;;;;;;3.08;100.00;101363.72;5031417;28;20099;-72
2024/02/26 03:58:53;;;;;;;17.23;11.23;;;;;;;3.40;100.00;101402.88;5030273;28;20810;-69
2024/02/26 04:01:18;;;;;;;21.73;14.23;;;;;;;3.05;100.00;101347.28;5033783;28;20260;-70
2024/02/26 04:03:44;;;;;;;19.80;12.43;;;;;;;2.57;100.00;101275.00;5036710;28;20045;-71
2024/02/26 04:06:10;;;;;;;22.27;14.20;;;;;;;3.33;100.00;101405.06;5036344;28;20033;-69
2024/02/26 04:08:37;;;;;;;20.47;13.10;;;;;;;2.97;100.00;101346.94;5036614;28;20041;-69
2024/02/26 04:11:07;;;;;;;20.60;13.23;;;;;;;3.33;100.00;101405.06;5037285;28;20267;-70
2024/02/26 04:13:33;;;;;;;20.80;12.47;;;;;;;3.41;100.00;101407.19;5036165;28;20280;-69
2024/02/26 04:16:01;;;;;;;19.00;13.53;;;;;;;3.34;100.00;101395.38;5051758;28;20264;-69
2024/02/26 04:18:27;;;;;;;21.90;13.23;;;;;;;3.26;100.00;101411.69;5046216;28;20334;-71
2024/02/26 04:20:53;;;;;;;19.47;12.60;;;;;;;3.14;100.00;101403.72;5037460;28;20279;-70
2024/02/26 04:23:18;;;;;;;23.40;13.07;;;;;;;3.08;100.00;101394.44;5036613;28;20272;-71
2024/02/26 04:25:53;;;;;;;21.40;14.43;;;;;;;3.30;100.00;101399.16;5035945;28;20053;-71
2024/02/26 04:28:20;;;;;;;22.37;13.90;;;;;;;3.31;100.00;101398.22;5035769;28;20103;-70
2024/02/26 04:30:47;;;;;;;21.57;13.87;;;;;;;3.04;100.00;101354.31;5035050;28;20333;-69
2024/02/26 04:33:13;;;;;;;23.10;13.73;;;;;;;3.26;100.00;101389.78;5035758;28;20381;-70
2024/02/26 04:35:39;;;;;;;17.87;11.93;;;;;;;3.17;100.00;101378.03;5034480;28;20324;-69
2024/02/26 04:38:04;;;;;;;22.17;12.60;;;;;;;3.27;100.00;101381.78;5035401;28;20037;-71
2024/02/26 04:40:30;;;;;;;18.20;12.23;;;;;;;3.24;100.00;101374.09;5035044;28;20034;-71
2024/02/26 04:42:57;;;;;;;18.80;11.67;;;;;;;3.29;100.00;101385.16;5036121;28;20033;-72
2024/02/26 04:45:22;;;;;;;23.53;13.87;;;;;;;2.45;100.00;101255.63;5037415;28;20034;-70
2024/02/26 04:47:48;;;;;;;19.47;12.77;;;;;;;3.30;100.00;101388.63;5057719;28;20272;-74
2024/02/26 04:50:14;;;;;;;19.23;13.67;;;;;;;3.30;100.00;101386.84;5046432;28;20088;-70
2024/02/26 04:52:40;;;;;;;21.63;13.33;;;;;;;3.26;100.00;101374.00;5035242;28;20069;-69
2024/02/26 04:55:06;;;;;;;21.17;14.77;;;;;;;2.46;100.00;101252.03;5035375;28;20489;-69
2024/02/26 04:57:32;;;;;;;21.27;13.67;;;;;;;3.27;100.00;101381.78;5034744;28;20326;-71
2024/02/26 04:59:57;;;;;;;23.33;14.23;;;;;;;3.43;100.00;101402.66;5033509;28;20087;-72
2024/02/26 05:02:24;;;;;;;19.13;12.60;;;;;;;3.38;100.00;101379.28;5046458;28;20041;-70
2024/02/26 05:04:49;;;;;;;19.80;12.70;;;;;;;3.38;100.00;101367.91;5042136;28;20155;-69
2024/02/26 05:07:17;;;;;;;21.23;14.13;;;;;;;3.37;100.00;101371.47;5032956;28;20818;-67
2024/02/26 05:09:43;;;;;;;21.97;12.47;;;;;;;3.26;100.00;101377.47;5034873;28;20033;-66
2024/02/26 05:12:09;;;;;;;21.60;13.50;;;;;;;3.20;100.00;101388.41;5034051;28;20272;-69
2024/02/26 05:14:35;;;;;;;24.73;13.57;;;;;;;3.28;100.00;101401.91;5031857;28;20276;-66
2024/02/26 05:17:01;;;;;;;18.73;12.90;;;;;;;3.25;100.00;101388.94;5034364;28;20310;-69
2024/02/26 05:19:26;;;;;;;24.43;13.53;;;;;;;3.07;100.00;101358.53;5032438;28;20386;-66
2024/02/26 05:21:52;;;;;;;18.93;12.17;;;;;;;3.21;100.00;101400.63;5032437;28;20029;-67
2024/02/26 05:24:18;;;;;;;24.23;13.40;;;;;;;2.44;100.00;101288.09;5032544;28;20045;-70
2024/02/26 05:26:45;;;;;;;23.00;14.13;;;;;;;3.20;100.00;101385.78;5033301;28;20060;-69
2024/02/26 05:29:11;;;;;;;21.70;13.43;;;;;;;3.14;100.00;101359.81;5031929;28;20041;-69
2024/02/26 05:31:36;;;;;;;18.70;12.07;;;;;;;3.30;100.00;101386.00;5033418;28;20287;-68
2024/02/26 05:34:02;;;;;;;25.53;12.17;;;;;;;3.39;100.00;101391.50;5032368;28;20751;-66
2024/02/26 05:36:32;;;;;;;24.87;12.70;;;;;;;3.24;100.00;101381.16;5032993;28;20118;-68
2024/02/26 05:39:00;;;;;;;20.43;11.70;;;;;;;3.27;100.00;101402.00;5014812;28;20033;-69
2024/02/26 05:41:26;;;;;;;25.90;14.60;;;;;;;3.10;100.00;101392.56;5028719;28;20414;-69
2024/02/26 05:43:55;;;;;;;23.87;13.23;;;;;;;3.16;100.00;101397.41;5032101;28;20288;-69
2024/02/26 05:46:22;;;;;;;23.53;13.13;;;;;;;3.04;100.00;101379.78;5031810;28;20651;-70
2024/02/26 05:48:49;;;;;;;24.27;13.07;;;;;;;3.02;100.00;101371.16;5031338;28;20280;-67
2024/02/26 05:51:15;;;;;;;24.60;13.93;;;;;;;3.12;100.00;101382.75;5016155;28;20761;-67
2024/02/26 05:53:41;;;;;;;25.00;14.77;;;;;;;3.03;100.00;101362.31;5013428;28;20319;-68
2024/02/26 05:56:06;;;;;;;26.63;14.87;;;;;;;2.94;100.00;101352.41;5013561;28;20041;-66
2024/02/26 05:58:32;;;;;;;24.47;15.13;;;;;;;3.05;100.00;101366.53;5013767;28;20288;-69
2024/02/26 06:00:58;;;;;;;24.80;14.17;;;;;;;3.12;100.00;101364.34;5014031;28;20036;-69
2024/02/26 06:03:23;;;;;;;28.57;14.63;;;;;;;3.16;100.00;101367.63;5013450;28;20084;-69
2024/02/26 06:05:49;;;;;;;25.83;14.33;;;;;;;3.13;100.00;101363.41;5014251;28;20088;-68
2024/02/26 06:08:14;;;;;;;33.00;15.40;;;;;;;3.04;100.00;101349.06;5014454;28;20088;-69
2024/02/26 06:10:40;;;;;;;23.67;14.20;;;;;;;3.09;100.00;101356.66;5013232;28;20491;-66
2024/02/26 06:13:06;;;;;;;32.73;15.60;;;;;;;3.17;100.00;101358.78;5012394;28;20096;-66
2024/02/26 06:15:31;;;;;;;28.57;13.90;;;;;;;3.33;100.00;101380.53;5014762;28;20076;-66
2024/02/26 06:17:57;;;;;;;30.33;15.33;;;;;;;3.31;100.00;101374.53;5045716;28;20070;-67
2024/02/26 06:20:23;;;;;;;27.50;15.43;;;;;;;3.27;100.00;101360.72;5014157;28;20133;-67
2024/02/26 06:22:48;;;;;;;33.13;17.00;;;;;;;3.20;100.00;101361.22;5013999;28;20501;-66
2024/02/26 06:25:15;;;;;;;35.37;16.50;;;;;;;3.21;100.00;101376.09;5014146;28;20040;-69
2024/02/26 06:27:42;;;;;;;27.53;14.73;;;;;;;3.09;100.00;101359.28;5014540;28;20452;-67
2024/02/26 06:30:10;;;;;;;32.17;17.03;;;;;;;3.01;100.00;101345.78;5045040;28;20332;-67
2024/02/26 06:32:36;;;;;;;34.08;17.15;;;;;;;2.92;100.00;101338.50;5027287;28;20268;-67
2024/02/26 06:35:06;;;;;;;28.33;16.57;;;;;;;2.89;100.00;101343.94;5036209;28;20041;-69
2024/02/26 06:37:33;;;;;;;34.30;17.07;;;;;;;2.80;100.00;101329.59;5033417;28;20300;-69
2024/02/26 06:40:06;;;;;;;24.47;15.40;;;;;;;2.97;100.00;101354.84;5032936;28;20332;-68
2024/02/26 06:42:32;;;;;;;35.67;17.93;;;;;;;2.98;100.00;101353.88;5032597;28;20294;-68
2024/02/26 06:44:58;;;;;;;37.70;18.57;;;;;;;2.99;100.00;101350.31;5032232;28;20264;-70
2024/02/26 06:47:23;;;;;;;28.77;16.37;;;;;;;2.97;100.00;101355.69;5030793;28;20268;-72
2024/02/26 06:49:49;;;;;;;27.17;15.77;;;;;;;2.95;100.00;101333.03;5012931;28;20041;-69
2024/02/26 06:52:14;;;;;;;31.03;17.10;;;;;;;3.22;100.00;101362.81;5014434;28;20124;-68
2024/02/26 06:54:40;;;;;;;32.33;16.53;;;;;;;3.20;100.00;101348.91;5019961;28;20053;-67
2024/02/26 06:57:05;;;;;;;32.97;17.20;;;;;;;3.12;100.00;101332.75;5017324;28;20044;-71
2024/02/26 06:59:31;;;;;;;34.33;17.03;;;;;;;3.10;100.00;101334.66;5012413;28;20033;-70
2024/02/26 07:01:57;;;;;;;31.43;18.23;;;;;;;3.29;100.00;101358.00;5012298;28;20079;-69
2024/02/26 07:04:22;;;;;;;27.07;15.93;;;;;;;3.23;100.00;101335.56;5012035;28;20042;-71
2024/02/26 07:06:48;;;;;;;26.50;15.10;;;;;;;3.32;100.00;101342.00;5012205;28;20053;-67
2024/02/26 07:09:14;;;;;;;32.70;15.37;;;;;;;3.39;100.00;101354.63;5012471;28;20490;-69
2024/02/26 07:11:41;;;;;;;30.10;16.33;;;;;;;3.25;100.00;101336.28;5011945;28;20034;-69
2024/02/26 07:14:08;;;;;;;31.87;15.90;;;;;;;3.37;100.00;101350.41;5012045;28;20119;-70
2024/02/26 07:16:34;;;;;;;26.77;15.63;;;;;;;3.43;100.00;101361.38;5011791;28;20281;-68
2024/02/26 07:18:59;;;;;;;27.23;16.77;;;;;;;3.27;100.00;101329.13;5023462;28;20276;-69
2024/02/26 07:21:25;;;;;;;42.43;21.60;;;;;;;3.40;100.00;101356.31;5030368;28;20033;-67
2024/02/26 07:23:51;;;;;;;22.60;14.77;;;;;;;3.28;100.00;101351.88;5030500;28;20037;-67
2024/02/26 07:26:19;;;;;;;25.37;15.73;;;;;;;3.19;100.00;101331.44;5029860;28;20068;-71
2024/02/26 07:28:47;;;;;;;24.67;16.52;;;;;;;3.43;100.00;101366.66;5031383;28;20037;-70
2024/02/26 07:31:13;;;;;;;28.88;15.00;;;;;;;3.24;100.00;101339.03;5031476;28;20045;-71
2024/02/26 07:33:38;;;;;;;23.73;15.17;;;;;;;3.38;100.00;101346.84;5031019;28;20068;-69
2024/02/26 07:36:04;;;;;;;25.67;15.33;;;;;;;3.49;100.00;101346.13;5030287;28;20500;-68
2024/02/26 07:38:29;;;;;;;28.03;15.43;;;;;;;3.19;100.00;101294.59;5031575;28;20497;-69
2024/02/26 07:40:56;;;;;;;34.23;16.53;;;;;;;3.47;100.00;101337.47;5031442;28;20036;-69
2024/02/26 07:43:22;;;;;;;27.53;15.20;;;;;;;3.56;100.00;101352.69;5031654;28;20087;-70
2024/02/26 07:45:48;;;;;;;39.10;18.63;;;;;;;2.71;100.00;101236.38;5031335;28;20276;-71
2024/02/26 07:48:13;;;;;;;29.37;16.43;;;;;;;3.40;100.00;101352.84;5031650;28;20298;-71
2024/02/26 07:50:40;;;;;;;29.67;16.17;;;;;;;3.45;100.00;101349.91;5030483;28;20128;-69
2024/02/26 07:53:06;;;;;;;30.20;16.47;;;;;;;3.36;100.00;101341.69;5031814;28;20045;-71
2024/02/26 07:55:31;;;;;;;28.97;15.07;;;;;;;3.13;100.00;101326.56;5032011;28;20252;-69
2024/02/26 07:57:57;;;;;;;26.37;15.43;;;;;;;3.13;100.00;101318.66;5033105;28;20433;-69
2024/02/26 08:00:22;;;;;;;27.30;15.23;;;;;;;3.23;100.00;101348.72;5033557;28;20049;-69
2024/02/26 08:02:48;;;;;;;26.07;15.27;;;;;;;3.21;100.00;101315.53;5031388;28;20045;-65
2024/02/26 08:05:14;;;;;;;24.57;15.30;;;;;;;3.36;100.00;101328.50;5031109;28;20060;-67
2024/02/26 08:07:39;;;;;;;27.07;15.97;;;;;;;3.53;100.00;101337.09;5030348;28;20056;-67
2024/02/26 08:10:06;;;;;;;21.40;13.77;;;;;;;3.46;100.00;101320.84;5031685;28;20097;-65
2024/02/26 08:12:32;;;;;;;25.43;14.87;;;;;;;3.49;100.00;101319.81;5030319;28;20131;-65
2024/02/26 08:14:58;;;;;;;25.27;14.60;;;;;;;3.67;100.00;101347.50;5030858;28;20755;-66
2024/02/26 08:17:24;;;;;;;21.30;13.97;;;;;;;3.41;100.00;101321.16;5031302;28;20121;-70
2024/02/26 08:19:49;;;;;;;20.07;14.43;;;;;;;3.33;100.00;101323.44;5031273;28;20771;-65
2024/02/26 08:22:17;;;;;;;26.03;14.90;;;;;;;3.36;100.00;101333.78;5031275;28;20041;-69
2024/02/26 08:24:43;;;;;;;19.75;13.25;;;;;;;3.29;100.00;101329.03;5029751;28;20064;-67
2024/02/26 08:27:10;;;;;;;21.30;12.53;;;;;;;3.27;100.00;101328.28;5030980;28;20049;-68
2024/02/26 08:29:35;;;;;;;20.17;12.93;;;;;;;3.13;100.00;101297.59;5029268;28;20125;-68
2024/02/26 08:32:01;;;;;;;17.43;12.20;;;;;;;3.04;100.00;101274.53;5030849;28;20387;-67
2024/02/26 08:34:39;;;;;;;24.80;13.70;;;;;;;3.19;100.00;101309.53;5030597;28;20037;-68
2024/02/26 08:37:06;;;;;;;20.33;13.03;;;;;;;2.97;100.00;101268.00;5029566;28;20536;-67
2024/02/26 08:39:31;;;;;;;14.53;11.27;;;;;;;3.31;100.00;101319.25;5031134;28;20310;-67
2024/02/26 08:41:57;;;;;;;20.20;12.63;;;;;;;3.41;100.00;101326.41;5034177;28;20763;-68
2024/02/26 08:44:22;;;;;;;19.67;13.67;;;;;;;3.56;100.00;101345.63;5030646;28;20675;-70
2024/02/26 08:46:48;;;;;;;17.10;12.70;;;;;;;3.61;100.00;101327.72;5029607;28;20041;-71
2024/02/26 08:49:16;;;;;;;19.63;13.40;;;;;;;3.51;100.00;101305.59;5032050;28;20033;-72
2024/02/26 08:51:43;;;;;;;16.73;12.33;;;;;;;3.49;100.00;101317.16;5032905;28;20037;-68
2024/02/26 08:54:09;;;;;;;18.43;12.73;;;;;;;3.54;100.00;101318.53;5032901;28;20390;-66
2024/02/26 08:56:34;;;;;;;20.30;12.80;;;;;;;3.64;100.00;101331.91;5034304;28;20709;-68
2024/02/26 08:59:03;;;;;;;16.07;11.07;;;;;;;3.54;100.00;101315.06;5032622;28;20041;-66
2024/02/26 09:01:32;;;;;;;15.10;11.47;;;;;;;3.72;100.00;101346.25;5034178;28;20033;-67
2024/02/26 09:03:59;;;;;;;15.40;9.57;;;;;;;3.74;100.00;101343.50;5033037;28;20091;-68
2024/02/26 09:06:24;;;;;;;16.40;10.33;;;;;;;3.69;100.00;101335.09;5033013;28;20847;-69
2024/02/26 09:08:50;;;;;;;16.20;8.60;;;;;;;3.69;100.00;101330.66;5034372;28;20124;-70
2024/02/26 09:11:16;;;;;;;13.20;8.27;;;;;;;3.62;100.00;101324.13;5033918;28;20474;-69
2024/02/26 09:13:42;;;;;;;10.17;7.30;;;;;;;3.56;100.00;101318.44;5033837;28;20045;-67
2024/02/26 09:16:08;;;;;;;10.30;6.77;;;;;;;3.57;100.00;101322.75;5032531;28;20289;-65
2024/02/26 09:18:33;;;;;;;9.53;7.47;;;;;;;3.65;100.00;101328.34;5033944;28;20288;-65
2024/02/26 09:20:59;;;;;;;10.33;6.57;;;;;;;3.60;100.00;101306.75;5034291;28;20459;-66
2024/02/26 09:23:24;;;;;;;11.00;6.50;;;;;;;3.54;100.00;101312.44;5033710;28;20037;-67
2024/02/26 09:25:50;;;;;;;10.60;8.10;;;;;;;3.45;100.00;101305.13;5033559;28;20049;-66
2024/02/26 09:28:18;;;;;;;7.93;6.53;;;;;;;3.57;100.00;101330.66;5033786;28;20073;-71
2024/02/26 09:30:44;;;;;;;8.53;6.27;;;;;;;3.41;100.00;101305.34;5033825;28;20053;-69
2024/02/26 09:33:10;;;;;;;8.53;6.13;;;;;;;3.24;100.00;101281.13;5032707;28;20334;-70
2024/02/26 09:35:36;;;;;;;10.60;6.77;;;;;;;3.41;100.00;101294.81;5033847;28;20355;-71
2024/02/26 09:38:02;;;;;;;9.37;6.93;;;;;;;3.70;100.00;101336.75;5032691;28;20041;-70
2024/02/26 09:40:27;;;;;;;6.43;5.20;;;;;;;3.72;100.00;101340.13;5016039;28;20292;-71
2024/02/26 09:42:59;;;;;;;9.20;6.60;;;;;;;3.61;100.00;101321.59;5032818;28;20041;-69
2024/02/26 09:45:27;;;;;;;8.87;6.30;;;;;;;3.60;100.00;101331.28;5033943;28;20048;-70
2024/02/26 09:48:04;;;;;;;8.73;6.68;;;;;;;3.41;100.00;101313.25;5031961;28;20271;-69
2024/02/26 09:50:30;;;;;;;7.53;5.67;;;;;;;3.59;100.00;101329.59;5033981;28;20049;-69
2024/02/26 09:52:59;;;;;;;8.10;5.50;;;;;;;3.60;100.00;101309.38;5032977;28;20276;-69
2024/02/26 09:55:27;;;;;;;7.03;5.87;;;;;;;3.42;100.00;101279.84;5032877;28;20160;-67
2024/02/26 09:57:58;;;;;;;6.95;6.22;;;;;;;3.66;100.00;101319.50;5032079;28;20292;-68
2024/02/26 10:00:28;;;;;;;9.90;6.10;;;;;;;3.59;100.00;101292.72;5032241;28;20136;-69
2024/02/26 10:02:56;;;;;;;5.93;5.27;;;;;;;3.68;100.00;101302.63;5033736;28;20701;-68
2024/02/26 10:05:41;;;;;;;7.53;6.00;;;;;;;3.02;100.00;101176.44;5033558;28;20299;-69
2024/02/26 10:08:10;;;;;;;7.53;5.60;;;;;;;3.85;100.00;101312.03;5033561;28;20264;-69
2024/02/26 10:10:37;;;;;;;7.85;5.80;;;;;;;3.83;100.00;101311.28;5032982;28;20296;-69
2024/02/26 10:13:09;;;;;;;7.97;6.07;;;;;;;3.85;100.00;101311.19;5030680;28;20033;-67
2024/02/26 10:16:04;;;;;;;9.50;5.33;;;;;;;4.02;100.00;101322.22;5031943;28;20273;-70
2024/02/26 10:18:46;;;;;;;9.57;5.07;;;;;;;3.62;100.00;101229.31;5030650;28;20339;-70
2024/02/26 10:21:12;;;;;;;10.23;5.27;;;;;;;4.07;100.00;101300.00;5031207;28;20295;-70
2024/02/26 10:23:40;;;;;;;5.30;4.33;;;;;;;4.06;100.00;101300.94;5032267;28;20613;-69
2024/02/26 10:26:10;;;;;;;4.50;4.05;;;;;;;4.14;100.00;101314.41;5031731;28;20057;-67
2024/02/26 10:28:41;;;;;;;4.87;4.07;;;;;;;3.95;100.00;101299.88;5040065;28;20056;-68
2024/02/26 10:31:08;;;;;;;8.60;4.40;;;;;;;3.88;100.00;101300.41;5014410;28;20268;-67
2024/02/26 10:33:37;;;;;;;6.23;5.07;;;;;;;3.76;100.00;101278.41;5032741;28;20302;-68
2024/02/26 10:36:07;;;;;;;7.40;5.03;;;;;;;3.89;100.00;101294.19;5032481;28;20279;-67
2024/02/26 10:38:35;;;;;;;9.30;4.27;;;;;;;4.02;100.00;101314.31;5032536;28;20881;-68
2024/02/26 10:41:08;;;;;;;7.53;5.90;;;;;;;4.03;100.00;101302.81;5030560;28;20280;-67
2024/02/26 10:43:34;;;;;;;8.30;5.03;;;;;;;4.05;100.00;101297.47;5030911;28;20627;-67
2024/02/26 10:45:59;;;;;;;8.30;5.10;;;;;;;4.04;100.00;101299.22;5031715;28;20351;-67
2024/02/26 10:48:25;;;;;;;25.23;13.57;;;;;;;4.04;100.00;101306.28;5031766;28;20409;-67
2024/02/26 10:50:52;;;;;;;16.00;9.77;;;;;;;3.90;100.00;101295.88;5031441;28;20103;-68
2024/02/26 10:53:20;;;;;;;11.20;5.93;;;;;;;3.87;100.00;101301.38;5031220;28;20141;-68
2024/02/26 10:55:52;;;;;;;10.00;6.32;;;;;;;3.84;100.00;101301.59;5031436;28;20311;-67
2024/02/26 10:58:18;;;;;;;10.77;7.57;;;;;;;3.84;100.00;101312.97;5023457;28;20049;-68
2024/02/26 11:00:47;;;;;;;12.43;6.23;;;;;;;3.65;100.00;101271.22;5047098;28;20604;-69
2024/02/26 11:03:17;;;;;;;7.15;5.75;;;;;;;3.76;100.00;101291.59;5031609;28;20371;-68
2024/02/26 11:05:44;;;;;;;9.03;5.83;;;;;;;3.90;100.00;101299.38;5030272;28;20523;-67
2024/02/26 11:08:11;;;;;;;6.47;5.73;;;;;;;3.93;100.00;101291.25;5034649;28;20257;-68
2024/02/26 11:10:38;;;;;;;10.30;4.97;;;;;;;3.98;100.00;101306.72;5028764;28;20272;-68
2024/02/26 11:13:12;;;;;;;7.50;5.00;;;;;;;3.83;100.00;101299.91;5033031;28;20268;-69